Terminal Aerodrome Forecast
Issued by NWS

Home | Current Version | Previous Version | Text Only | Print | Product List | Glossary On
Versions: 1 2 3 4 5 6 7 8 9 10 11 12 13 14 15 16 17
029
FTUS46 KLOX 191139
TAFSBA
TAF
KSBA 191139Z 1912/2012 VRB05KT P6SM SCT050 BKN120
     FM191900 23008KT P6SM BKN050
     FM200300 VRB03KT P6SM VCSH BKN050
     FM200700 VRB03KT P6SM -RA OVC025
     FM201100 17013KT 4SM -RA BR OVC015=

USA.gov is the U.S. government's official web portal to all federal, state and local government web resources and services.